createdAt,value
2022-10-03T00:00:19.045Z,9.32
2022-10-03T00:05:59.055Z,9.25
2022-10-03T00:11:37.262Z,9.22
2022-10-03T00:17:12.036Z,9.17
2022-10-03T00:22:49.085Z,9.20
2022-10-03T00:28:25.147Z,9.12
2022-10-03T00:34:04.095Z,9.08
2022-10-03T00:39:57.067Z,8.96
2022-10-03T00:45:57.111Z,8.87
2022-10-03T00:51:39.357Z,8.85
2022-10-03T00:57:23.080Z,8.84
2022-10-03T01:02:59.108Z,8.85
2022-10-03T01:08:53.074Z,8.89
2022-10-03T01:14:33.080Z,8.94
2022-10-03T01:20:15.084Z,9.00
2022-10-03T01:25:50.108Z,8.99
2022-10-03T01:31:24.151Z,8.97
2022-10-03T01:36:59.138Z,8.92
2022-10-03T01:42:31.093Z,8.89
2022-10-03T01:48:03.088Z,8.87
2022-10-03T01:53:35.086Z,8.83
2022-10-03T01:59:09.198Z,8.83
2022-10-03T02:04:59.103Z,8.80
2022-10-03T02:10:35.135Z,8.81
2022-10-03T02:16:13.147Z,8.78
2022-10-03T02:21:42.221Z,8.83
2022-10-03T02:27:28.145Z,8.81
2022-10-03T02:33:34.116Z,8.82
2022-10-03T02:39:35.138Z,8.83
2022-10-03T02:45:34.266Z,8.80
2022-10-03T02:51:37.615Z,8.78
2022-10-03T02:57:36.117Z,8.74
2022-10-03T03:03:32.267Z,8.76
2022-10-03T03:09:10.171Z,8.77
2022-10-03T03:15:07.204Z,8.75
2022-10-03T03:20:53.173Z,8.83
2022-10-03T03:26:38.206Z,8.87
2022-10-03T03:32:12.185Z,8.89
2022-10-03T03:37:47.154Z,8.92
2022-10-03T03:43:41.299Z,8.98
2022-10-03T03:49:22.199Z,9.02
2022-10-03T03:55:08.180Z,9.01
2022-10-03T04:00:38.201Z,9.01
2022-10-03T04:06:26.136Z,8.95
2022-10-03T04:12:08.146Z,8.96
2022-10-03T04:18:07.262Z,8.97
2022-10-03T04:23:48.166Z,9.02
2022-10-03T04:29:39.162Z,9.01
2022-10-03T04:35:20.214Z,8.95
2022-10-03T04:40:58.197Z,8.94
2022-10-03T04:46:39.203Z,9.00
2022-10-03T04:52:11.162Z,9.03
2022-10-03T04:57:46.250Z,9.07
2022-10-03T05:03:22.239Z,9.07
2022-10-03T05:09:02.327Z,9.09
2022-10-03T05:14:36.246Z,9.16
2022-10-03T05:20:18.213Z,9.19
2022-10-03T05:26:23.214Z,9.17
2022-10-03T05:32:05.310Z,9.17
2022-10-03T05:37:58.247Z,9.18
2022-10-03T05:43:45.251Z,9.15
2022-10-03T05:49:30.229Z,9.13
2022-10-03T05:55:15.237Z,9.15
2022-10-03T06:00:54.286Z,9.16
2022-10-03T06:06:35.225Z,9.21
2022-10-03T06:12:13.243Z,9.23
2022-10-03T06:18:09.254Z,9.31
2022-10-03T06:24:04.281Z,9.31
2022-10-03T06:36:04.249Z,9.40
2022-10-03T06:42:02.303Z,9.51
2022-10-03T06:47:47.232Z,9.56
2022-10-03T06:53:28.238Z,9.68
2022-10-03T06:59:26.243Z,9.71
2022-10-03T07:05:29.253Z,9.80
2022-10-03T07:11:16.266Z,9.95
2022-10-03T07:17:24.275Z,10.02
2022-10-03T07:23:20.267Z,10.06
2022-10-03T07:29:17.274Z,10.11
2022-10-03T07:35:17.324Z,10.26
2022-10-03T07:41:14.278Z,10.32
2022-10-03T07:47:05.277Z,10.43
2022-10-03T07:52:52.258Z,10.48
2022-10-03T07:58:49.254Z,10.55
2022-10-03T08:04:42.283Z,10.61
2022-10-03T08:10:28.273Z,10.63
2022-10-03T08:16:11.374Z,10.67
2022-10-03T08:21:45.289Z,10.75
2022-10-03T08:27:39.340Z,10.85
2022-10-03T08:33:19.308Z,10.88
2022-10-03T08:39:09.318Z,10.89
2022-10-03T08:44:56.444Z,10.99
2022-10-03T08:51:00.315Z,11.29
2022-10-03T08:56:30.300Z,11.40
2022-10-03T09:02:21.451Z,11.58
2022-10-03T09:08:20.325Z,11.60
2022-10-03T09:14:51.349Z,11.55
2022-10-03T09:20:43.351Z,11.64
2022-10-03T09:26:22.338Z,11.25
2022-10-03T09:32:18.344Z,11.40
2022-10-03T09:44:10.339Z,11.70
2022-10-03T09:50:15.334Z,11.83
2022-10-03T09:55:59.371Z,12.00
2022-10-03T10:01:36.364Z,12.13
2022-10-03T10:07:49.584Z,12.29
2022-10-03T10:14:06.287Z,12.50
2022-10-03T10:20:00.402Z,12.89
2022-10-03T10:25:52.382Z,13.26
2022-10-03T10:32:04.382Z,13.28
2022-10-03T10:37:46.377Z,13.37
2022-10-03T10:43:56.402Z,13.53
2022-10-03T10:49:53.374Z,13.69
2022-10-03T10:55:58.421Z,13.55
2022-10-03T11:01:59.403Z,13.38
2022-10-03T11:08:11.448Z,13.55
2022-10-03T11:14:03.405Z,13.77
2022-10-03T11:20:13.457Z,13.54
2022-10-03T11:32:49.440Z,13.56
2022-10-03T11:38:22.419Z,13.54
2022-10-03T11:44:16.414Z,13.65
2022-10-03T11:50:04.496Z,13.54
2022-10-03T11:55:43.542Z,13.39
2022-10-03T12:01:25.405Z,13.71
2022-10-03T12:07:26.413Z,14.01
2022-10-03T12:12:55.441Z,14.31
2022-10-03T12:18:26.435Z,14.18
2022-10-03T12:24:11.424Z,13.96
2022-10-03T12:29:40.460Z,14.24
2022-10-03T12:35:40.450Z,14.35
2022-10-03T12:41:18.450Z,14.41
2022-10-03T12:46:53.449Z,14.22
2022-10-03T12:52:21.420Z,14.25
2022-10-03T12:58:00.433Z,14.22
2022-10-03T13:03:45.521Z,14.25
2022-10-03T13:09:32.545Z,14.21
2022-10-03T13:15:27.588Z,14.17
2022-10-03T13:20:56.495Z,14.23
2022-10-03T13:26:30.533Z,14.20
2022-10-03T13:32:09.443Z,14.10
2022-10-03T13:37:45.510Z,14.14
2022-10-03T13:43:12.508Z,14.62
2022-10-03T13:48:38.534Z,14.53
2022-10-03T13:54:17.525Z,14.46
2022-10-03T13:59:56.591Z,14.48
2022-10-03T14:05:46.513Z,14.49
2022-10-03T14:11:24.496Z,14.38
2022-10-03T14:16:52.501Z,14.34
2022-10-03T14:22:37.526Z,14.27
2022-10-03T14:28:17.613Z,14.26
2022-10-03T14:33:50.639Z,14.13
2022-10-03T14:39:28.503Z,14.06
2022-10-03T14:45:03.512Z,13.98
2022-10-03T14:50:33.519Z,13.96
2022-10-03T14:56:09.504Z,13.92
2022-10-03T15:01:39.710Z,13.89
2022-10-03T15:07:08.520Z,13.86
2022-10-03T15:12:36.538Z,13.90
2022-10-03T15:18:07.551Z,14.11
2022-10-03T15:23:43.548Z,14.26
2022-10-03T15:29:12.533Z,14.37
2022-10-03T15:34:45.525Z,14.35
2022-10-03T15:40:17.514Z,14.49
2022-10-03T15:45:47.607Z,14.56
2022-10-03T15:51:24.571Z,14.46
2022-10-03T15:57:15.575Z,14.08
2022-10-03T16:02:44.571Z,13.78
2022-10-03T16:08:20.561Z,13.66
2022-10-03T16:13:48.606Z,13.49
2022-10-03T16:19:36.543Z,13.31
2022-10-03T16:25:28.583Z,13.12
2022-10-03T16:30:59.610Z,13.05
2022-10-03T16:36:25.613Z,12.98
